SWR457 RJTT-RPLL
Flight info
| Callsign | SWR457 |
|---|---|
| Flight time | N/A |
| Altitude | 35000 |
| Route | XAC V18 NIVIL/N0486F370 V18 MOE/N0490F360 A590 YOSHI A339 TAXON/N0489F370 A597 ASEDA/N0494F360 KEITH/N0489F380 DCT LIMLE DCT MUPOB DCT POLIO POLIO1B |
| Aircraft | B77W/H-SDE1E2E3FGHIJ2J3J4J5M1RWXY/LB1D1 |
Departure
| Time | 2026-05-06 18:42 |
|---|---|
| Airport | Tokyo Haneda International Airport (RJTT) |
Arrival
| Time | N/A |
|---|---|
| Airport | Ninoy Aquino International Airport (RPLL) |
| Time | Latitude | Longitude | Altitude | Speed | Heading |
|---|---|---|---|---|---|
| 2026-05-06 18:20 | 35.54480 | 139.78455 | 29 ft | 0 kts | 61° |
| 2026-05-06 18:33 | 35.54478 | 139.78451 | 29 ft | 4 kts | 79° |
| 2026-05-06 18:34 | 35.54476 | 139.78447 | 29 ft | 4 kts | 61° |
| 2026-05-06 18:34 | 35.54465 | 139.78419 | 26 ft | 4 kts | 78° |
| 2026-05-06 18:34 | 35.54465 | 139.78388 | 25 ft | 4 kts | 116° |
| 2026-05-06 18:34 | 35.54481 | 139.78364 | 26 ft | 3 kts | 149° |
| 2026-05-06 18:35 | 35.54484 | 139.78362 | 26 ft | 0 kts | 150° |
| 2026-05-06 18:36 | 35.54483 | 139.78362 | 26 ft | 1 kts | 150° |
| 2026-05-06 18:37 | 35.54460 | 139.78379 | 25 ft | 0 kts | 148° |
| 2026-05-06 18:37 | 35.54459 | 139.78380 | 25 ft | 0 kts | 148° |
| 2026-05-06 18:37 | 35.54431 | 139.78403 | 29 ft | 10 kts | 143° |
| 2026-05-06 18:37 | 35.54359 | 139.78456 | 29 ft | 14 kts | 150° |
| 2026-05-06 18:38 | 35.54311 | 139.78561 | 29 ft | 16 kts | 78° |
| 2026-05-06 18:38 | 35.54365 | 139.78702 | 29 ft | 20 kts | 60° |
| 2026-05-06 18:38 | 35.54390 | 139.78858 | 29 ft | 20 kts | 114° |
| 2026-05-06 18:38 | 35.54416 | 139.79030 | 29 ft | 23 kts | 61° |
| 2026-05-06 18:39 | 35.54501 | 139.79209 | 29 ft | 26 kts | 59° |
| 2026-05-06 18:39 | 35.54599 | 139.79415 | 29 ft | 29 kts | 59° |
| 2026-05-06 18:39 | 35.54677 | 139.79617 | 29 ft | 17 kts | 108° |
| 2026-05-06 18:40 | 35.54405 | 139.79821 | 28 ft | 34 kts | 149° |
| 2026-05-06 18:40 | 35.54206 | 139.79962 | 29 ft | 32 kts | 150° |
| 2026-05-06 18:40 | 35.54016 | 139.80100 | 29 ft | 31 kts | 150° |
| 2026-05-06 18:40 | 35.53879 | 139.80225 | 29 ft | 21 kts | 108° |
| 2026-05-06 18:41 | 35.53934 | 139.80391 | 28 ft | 21 kts | 58° |
| 2026-05-06 18:41 | 35.54053 | 139.80450 | 29 ft | 21 kts | 331° |
| 2026-05-06 18:41 | 35.54225 | 139.80328 | 28 ft | 58 kts | 329° |
| 2026-05-06 18:41 | 35.54913 | 139.79842 | 30 ft | 171 kts | 330° |
| 2026-05-06 18:42 | 35.56106 | 139.79003 | 1005 ft | 202 kts | 329° |
| 2026-05-06 18:42 | 35.57363 | 139.78156 | 2168 ft | 206 kts | 337° |
| 2026-05-06 18:42 | 35.58869 | 139.78019 | 2351 ft | 238 kts | 15° |
| 2026-05-06 18:42 | 35.60269 | 139.79214 | 2723 ft | 256 kts | 57° |
| 2026-05-06 18:43 | 35.60737 | 139.80541 | 3117 ft | 259 kts | 83° |
| 2026-05-06 18:43 | 35.60450 | 139.83442 | 4021 ft | 259 kts | 107° |
| 2026-05-06 18:43 | 35.60189 | 139.84945 | 4421 ft | 270 kts | 103° |
| 2026-05-06 18:43 | 35.59952 | 139.87267 | 5060 ft | 283 kts | 98° |
| 2026-05-06 18:44 | 35.59818 | 139.89715 | 5801 ft | 290 kts | 96° |
| 2026-05-06 18:44 | 35.59725 | 139.92197 | 6596 ft | 294 kts | 95° |
| 2026-05-06 18:44 | 35.59640 | 139.94741 | 7379 ft | 295 kts | 97° |
| 2026-05-06 18:44 | 35.59125 | 139.97125 | 7958 ft | 293 kts | 126° |
| 2026-05-06 18:45 | 35.57724 | 139.98862 | 8710 ft | 283 kts | 155° |
| 2026-05-06 18:45 | 35.55909 | 139.99659 | 9451 ft | 279 kts | 177° |
| 2026-05-06 18:45 | 35.53968 | 139.99571 | 10138 ft | 278 kts | 195° |
| 2026-05-06 18:45 | 35.52142 | 139.98701 | 10490 ft | 291 kts | 215° |
| 2026-05-06 18:46 | 35.50467 | 139.97218 | 10647 ft | 313 kts | 219° |
| 2026-05-06 18:46 | 35.48637 | 139.95562 | 10835 ft | 338 kts | 218° |
| 2026-05-06 18:46 | 35.46659 | 139.93820 | 11253 ft | 356 kts | 217° |
| 2026-05-06 18:46 | 35.44622 | 139.92054 | 11923 ft | 366 kts | 217° |
| 2026-05-06 18:47 | 35.42513 | 139.90236 | 12795 ft | 373 kts | 217° |
| 2026-05-06 18:47 | 35.40372 | 139.88391 | 13696 ft | 378 kts | 217° |
| 2026-05-06 18:47 | 35.38219 | 139.86534 | 14496 ft | 384 kts | 217° |
| 2026-05-06 18:47 | 35.36025 | 139.84643 | 15388 ft | 386 kts | 217° |
| 2026-05-06 18:48 | 35.33727 | 139.82946 | 16106 ft | 390 kts | 204° |
| 2026-05-06 18:48 | 35.31027 | 139.82161 | 16805 ft | 404 kts | 188° |
| 2026-05-06 18:48 | 35.28224 | 139.82316 | 17642 ft | 411 kts | 175° |
| 2026-05-06 18:48 | 35.25748 | 139.82865 | 18349 ft | 415 kts | 174° |
| 2026-05-06 18:49 | 35.22913 | 139.83522 | 19010 ft | 420 kts | 174° |
| 2026-05-06 18:49 | 35.20024 | 139.84178 | 19734 ft | 422 kts | 175° |
| 2026-05-06 18:49 | 35.17145 | 139.84807 | 20490 ft | 424 kts | 176° |
| 2026-05-06 18:49 | 35.14219 | 139.85426 | 21245 ft | 426 kts | 176° |
| 2026-05-06 18:50 | 35.11292 | 139.86035 | 21949 ft | 429 kts | 177° |
| 2026-05-06 18:50 | 35.08336 | 139.86651 | 22735 ft | 428 kts | 178° |
| 2026-05-06 18:50 | 35.05423 | 139.86859 | 23227 ft | 418 kts | 193° |
| 2026-05-06 18:50 | 35.02674 | 139.85939 | 23736 ft | 411 kts | 208° |
| 2026-05-06 18:51 | 35.00173 | 139.84249 | 24256 ft | 409 kts | 218° |
| 2026-05-06 18:51 | 34.98011 | 139.81978 | 24762 ft | 405 kts | 231° |
| 2026-05-06 18:51 | 34.96247 | 139.79327 | 25208 ft | 409 kts | 233° |
| 2026-05-06 18:51 | 34.94484 | 139.76566 | 25689 ft | 413 kts | 234° |
| 2026-05-06 18:52 | 34.92730 | 139.73827 | 26193 ft | 416 kts | 233° |
| 2026-05-06 18:52 | 34.90919 | 139.71033 | 26663 ft | 420 kts | 233° |
| 2026-05-06 18:52 | 34.89080 | 139.68229 | 27159 ft | 423 kts | 233° |
| 2026-05-06 18:52 | 34.87235 | 139.65441 | 27650 ft | 425 kts | 233° |
| 2026-05-06 18:53 | 34.85361 | 139.62622 | 28140 ft | 428 kts | 233° |
| 2026-05-06 18:53 | 34.83494 | 139.59818 | 28587 ft | 431 kts | 233° |
| 2026-05-06 18:53 | 34.81590 | 139.56961 | 29009 ft | 434 kts | 233° |
| 2026-05-06 18:53 | 34.79695 | 139.54119 | 29418 ft | 437 kts | 233° |
| 2026-05-06 18:54 | 34.77786 | 139.51257 | 29796 ft | 438 kts | 233° |
| 2026-05-06 18:54 | 34.75868 | 139.48399 | 30219 ft | 436 kts | 232° |
| 2026-05-06 18:54 | 34.73583 | 139.45897 | 30398 ft | 448 kts | 217° |
| 2026-05-06 18:54 | 34.70763 | 139.44263 | 30790 ft | 457 kts | 204° |
| 2026-05-06 18:55 | 34.67643 | 139.43262 | 31344 ft | 461 kts | 198° |
| 2026-05-06 18:55 | 34.64455 | 139.42852 | 31748 ft | 473 kts | 186° |
| 2026-05-06 18:55 | 34.61140 | 139.43380 | 32053 ft | 483 kts | 177° |
| 2026-05-06 18:55 | 34.57817 | 139.44209 | 32359 ft | 487 kts | 176° |
| 2026-05-06 18:56 | 34.54525 | 139.45080 | 32724 ft | 486 kts | 176° |
| 2026-05-06 18:56 | 34.51208 | 139.45938 | 33135 ft | 484 kts | 177° |
| 2026-05-06 18:56 | 34.47936 | 139.46747 | 33559 ft | 482 kts | 178° |
| 2026-05-06 18:56 | 34.44664 | 139.47520 | 33960 ft | 481 kts | 178° |
| 2026-05-06 18:57 | 34.41362 | 139.48279 | 34312 ft | 480 kts | 178° |
| 2026-05-06 18:57 | 34.38119 | 139.49014 | 34612 ft | 479 kts | 179° |
| 2026-05-06 18:57 | 34.34848 | 139.49756 | 35025 ft | 476 kts | 179° |
| 2026-05-06 18:58 | 34.28312 | 139.51237 | 35378 ft | 478 kts | 179° |
| 2026-05-06 18:58 | 34.25039 | 139.51986 | 35819 ft | 474 kts | 179° |
| 2026-05-06 18:58 | 34.21831 | 139.52719 | 36245 ft | 471 kts | 179° |
| 2026-05-06 18:58 | 34.18598 | 139.53454 | 36562 ft | 469 kts | 179° |
| 2026-05-06 18:59 | 34.15425 | 139.54183 | 36968 ft | 466 kts | 179° |
| 2026-05-06 18:59 | 34.09063 | 139.55148 | 37072 ft | 449 kts | 194° |
| 2026-05-06 18:59 | 34.06032 | 139.54589 | 37064 ft | 437 kts | 203° |
| 2026-05-06 19:00 | 34.03182 | 139.53487 | 37055 ft | 429 kts | 211° |
| 2026-05-06 19:00 | 33.98048 | 139.50056 | 37033 ft | 421 kts | 216° |
| 2026-05-06 19:01 | 33.92925 | 139.46516 | 37057 ft | 424 kts | 216° |
| 2026-05-06 19:01 | 33.87795 | 139.43024 | 37056 ft | 427 kts | 216° |
| 2026-05-06 19:02 | 33.82604 | 139.39516 | 37055 ft | 428 kts | 216° |
| 2026-05-06 19:02 | 33.77410 | 139.36016 | 37053 ft | 428 kts | 216° |
| 2026-05-06 19:03 | 33.72230 | 139.32530 | 37049 ft | 427 kts | 216° |
| 2026-05-06 19:03 | 33.67045 | 139.29042 | 37046 ft | 426 kts | 215° |
| 2026-05-06 19:04 | 33.61866 | 139.25567 | 37048 ft | 426 kts | 215° |
| 2026-05-06 19:04 | 33.56723 | 139.22119 | 37048 ft | 425 kts | 215° |
| 2026-05-06 19:05 | 33.51535 | 139.18643 | 37048 ft | 425 kts | 215° |
| 2026-05-06 19:05 | 33.46409 | 139.15216 | 36873 ft | 423 kts | 215° |
| 2026-05-06 19:05 | 33.43829 | 139.13493 | 36690 ft | 423 kts | 215° |
| 2026-05-06 19:06 | 33.41245 | 139.11767 | 36527 ft | 423 kts | 215° |
| 2026-05-06 19:06 | 33.38689 | 139.10061 | 36399 ft | 423 kts | 215° |
| 2026-05-06 19:06 | 33.36139 | 139.08361 | 36277 ft | 422 kts | 214° |
| 2026-05-06 19:06 | 33.33560 | 139.06643 | 36175 ft | 421 kts | 214° |
| 2026-05-06 19:07 | 33.31031 | 139.04960 | 36112 ft | 420 kts | 214° |
| 2026-05-06 19:07 | 33.25915 | 139.01556 | 36043 ft | 419 kts | 214° |
| 2026-05-06 19:08 | 33.20822 | 138.98171 | 36039 ft | 419 kts | 214° |
| 2026-05-06 19:08 | 33.15700 | 138.94877 | 36026 ft | 422 kts | 211° |
| 2026-05-06 19:09 | 33.10380 | 138.91887 | 36033 ft | 423 kts | 211° |
| 2026-05-06 19:09 | 33.04959 | 138.89042 | 36027 ft | 429 kts | 205° |
| 2026-05-06 19:10 | 32.99252 | 138.86975 | 36036 ft | 431 kts | 203° |
| 2026-05-06 19:10 | 32.93488 | 138.84879 | 36033 ft | 432 kts | 203° |
| 2026-05-06 19:11 | 32.87749 | 138.82773 | 36026 ft | 433 kts | 203° |
| 2026-05-06 19:11 | 32.81992 | 138.80658 | 36035 ft | 434 kts | 203° |
| 2026-05-06 19:12 | 32.76240 | 138.78547 | 36029 ft | 434 kts | 203° |
| 2026-05-06 19:12 | 32.70455 | 138.76427 | 36031 ft | 435 kts | 203° |
| 2026-05-06 19:13 | 32.64691 | 138.74318 | 36023 ft | 435 kts | 203° |
| 2026-05-06 19:13 | 32.58877 | 138.72194 | 36031 ft | 435 kts | 203° |
| 2026-05-06 19:14 | 32.53121 | 138.70094 | 36031 ft | 435 kts | 203° |
| 2026-05-06 19:14 | 32.47329 | 138.67983 | 36029 ft | 435 kts | 203° |
| 2026-05-06 19:15 | 32.41547 | 138.65878 | 36028 ft | 435 kts | 203° |
| 2026-05-06 19:15 | 32.35784 | 138.63790 | 36033 ft | 434 kts | 202° |
| 2026-05-06 19:16 | 32.30009 | 138.61691 | 36033 ft | 434 kts | 202° |
| 2026-05-06 19:16 | 32.24213 | 138.59587 | 36032 ft | 434 kts | 202° |
| 2026-05-06 19:17 | 32.18453 | 138.57501 | 36034 ft | 434 kts | 202° |
| 2026-05-06 19:17 | 32.12696 | 138.55421 | 36042 ft | 434 kts | 202° |
| 2026-05-06 19:18 | 32.06896 | 138.53329 | 36038 ft | 434 kts | 202° |
| 2026-05-06 19:18 | 32.01134 | 138.51251 | 36047 ft | 434 kts | 202° |
| 2026-05-06 19:19 | 31.95377 | 138.49178 | 36037 ft | 434 kts | 202° |
| 2026-05-06 19:19 | 31.89603 | 138.47101 | 36046 ft | 434 kts | 202° |
| 2026-05-06 19:20 | 31.83813 | 138.45023 | 36044 ft | 434 kts | 202° |
| 2026-05-06 19:20 | 31.78025 | 138.42948 | 36044 ft | 434 kts | 201° |
| 2026-05-06 19:21 | 31.72260 | 138.40883 | 36042 ft | 434 kts | 201° |
| 2026-05-06 19:21 | 31.66499 | 138.38821 | 36047 ft | 434 kts | 201° |
| 2026-05-06 19:22 | 31.60723 | 138.36759 | 36047 ft | 434 kts | 201° |
| 2026-05-06 19:22 | 31.54960 | 138.34703 | 36050 ft | 434 kts | 201° |
| 2026-05-06 19:23 | 31.49177 | 138.32642 | 36049 ft | 434 kts | 201° |
| 2026-05-06 19:23 | 31.43411 | 138.30588 | 36047 ft | 433 kts | 201° |
| 2026-05-06 19:24 | 31.37637 | 138.28539 | 36052 ft | 433 kts | 201° |
| 2026-05-06 19:24 | 31.31891 | 138.26500 | 36053 ft | 433 kts | 201° |
| 2026-05-06 19:25 | 31.26122 | 138.24455 | 36055 ft | 433 kts | 201° |
| 2026-05-06 19:25 | 31.20356 | 138.22412 | 36054 ft | 432 kts | 200° |
| 2026-05-06 19:26 | 31.14610 | 138.20384 | 36056 ft | 433 kts | 200° |
| 2026-05-06 19:26 | 31.08849 | 138.18346 | 36062 ft | 434 kts | 200° |
| 2026-05-06 19:27 | 31.03072 | 138.16308 | 36056 ft | 434 kts | 200° |
| 2026-05-06 19:27 | 30.97286 | 138.14270 | 36058 ft | 435 kts | 200° |
| 2026-05-06 19:28 | 30.91493 | 138.12233 | 36061 ft | 435 kts | 200° |
| 2026-05-06 19:28 | 30.85677 | 138.10190 | 36056 ft | 435 kts | 200° |
| 2026-05-06 19:29 | 30.79909 | 138.08166 | 36056 ft | 435 kts | 200° |
| 2026-05-06 19:29 | 30.74093 | 138.06127 | 36042 ft | 435 kts | 200° |
| 2026-05-06 19:30 | 30.68289 | 138.04096 | 36056 ft | 435 kts | 200° |
| 2026-05-06 19:30 | 30.62490 | 138.02069 | 36061 ft | 436 kts | 200° |
| 2026-05-06 19:31 | 30.57665 | 138.00384 | 36062 ft | 436 kts | 200° |
| 2026-05-06 19:31 | 30.48949 | 137.97344 | 36054 ft | 436 kts | 199° |
| 2026-05-06 19:32 | 30.42182 | 137.94989 | 36060 ft | 437 kts | 199° |
| 2026-05-06 19:32 | 30.37325 | 137.93301 | 36060 ft | 437 kts | 199° |
| 2026-05-06 19:33 | 30.31492 | 137.91276 | 36065 ft | 437 kts | 199° |
| 2026-05-06 19:33 | 30.25684 | 137.89261 | 36052 ft | 437 kts | 199° |
| 2026-05-06 19:34 | 30.19837 | 137.87236 | 36061 ft | 437 kts | 199° |
| 2026-05-06 19:34 | 30.14014 | 137.85222 | 36059 ft | 437 kts | 199° |
| 2026-05-06 19:35 | 30.08201 | 137.83213 | 36059 ft | 436 kts | 199° |
| 2026-05-06 19:35 | 30.02394 | 137.81209 | 36062 ft | 436 kts | 199° |
| 2026-05-06 19:36 | 29.96595 | 137.79214 | 36065 ft | 435 kts | 199° |
| 2026-05-06 19:36 | 29.90808 | 137.77220 | 36061 ft | 435 kts | 199° |
| 2026-05-06 19:37 | 29.85024 | 137.75228 | 36062 ft | 434 kts | 199° |
| 2026-05-06 19:37 | 29.79213 | 137.73232 | 36063 ft | 434 kts | 199° |
| 2026-05-06 19:38 | 29.73465 | 137.71260 | 36059 ft | 434 kts | 199° |
| 2026-05-06 19:38 | 29.67669 | 137.69275 | 36061 ft | 435 kts | 199° |
| 2026-05-06 19:39 | 29.61830 | 137.67277 | 36069 ft | 436 kts | 199° |
| 2026-05-06 19:39 | 29.56011 | 137.65288 | 36063 ft | 437 kts | 199° |
| 2026-05-06 19:40 | 29.50175 | 137.63296 | 36057 ft | 438 kts | 199° |
| 2026-05-06 19:40 | 29.44473 | 137.61352 | 36063 ft | 439 kts | 199° |
| 2026-05-06 19:41 | 29.38624 | 137.59359 | 36064 ft | 440 kts | 199° |
| 2026-05-06 19:41 | 29.32736 | 137.57357 | 36064 ft | 440 kts | 199° |
| 2026-05-06 19:42 | 29.26866 | 137.55363 | 36049 ft | 440 kts | 199° |
| 2026-05-06 19:42 | 29.21025 | 137.53381 | 36058 ft | 440 kts | 199° |
| 2026-05-06 19:43 | 29.15157 | 137.51392 | 36062 ft | 440 kts | 199° |
| 2026-05-06 19:43 | 29.09296 | 137.49408 | 36062 ft | 440 kts | 199° |
| 2026-05-06 19:44 | 29.03398 | 137.47414 | 36044 ft | 440 kts | 199° |
| 2026-05-06 19:44 | 28.97561 | 137.45443 | 36057 ft | 440 kts | 199° |
| 2026-05-06 19:45 | 28.91652 | 137.43448 | 36065 ft | 441 kts | 199° |
| 2026-05-06 19:45 | 28.85790 | 137.41473 | 36065 ft | 441 kts | 199° |
| 2026-05-06 19:46 | 28.79915 | 137.39496 | 36063 ft | 442 kts | 199° |
| 2026-05-06 19:46 | 28.73984 | 137.37504 | 36067 ft | 442 kts | 199° |
| 2026-05-06 19:47 | 28.68118 | 137.35534 | 36064 ft | 442 kts | 199° |
| 2026-05-06 19:47 | 28.62176 | 137.33540 | 36063 ft | 443 kts | 199° |
| 2026-05-06 19:48 | 28.56278 | 137.31565 | 36062 ft | 443 kts | 199° |
| 2026-05-06 19:48 | 28.50383 | 137.29593 | 36062 ft | 443 kts | 199° |
| 2026-05-06 19:49 | 28.44489 | 137.27624 | 36065 ft | 442 kts | 199° |
| 2026-05-06 19:49 | 28.38576 | 137.25650 | 36065 ft | 442 kts | 199° |
| 2026-05-06 19:50 | 28.32680 | 137.23684 | 36062 ft | 442 kts | 199° |
| 2026-05-06 19:50 | 28.26767 | 137.21715 | 36052 ft | 442 kts | 199° |
| 2026-05-06 19:51 | 28.20897 | 137.19763 | 36064 ft | 442 kts | 199° |
| 2026-05-06 19:51 | 28.14975 | 137.17795 | 36063 ft | 442 kts | 199° |
| 2026-05-06 19:52 | 28.09084 | 137.15840 | 36063 ft | 442 kts | 199° |
| 2026-05-06 19:52 | 28.03176 | 137.13882 | 36053 ft | 442 kts | 199° |
| 2026-05-06 19:53 | 27.97274 | 137.11928 | 36063 ft | 442 kts | 199° |
| 2026-05-06 19:53 | 27.91362 | 137.09973 | 36066 ft | 442 kts | 199° |
| 2026-05-06 19:54 | 27.85450 | 137.08020 | 36062 ft | 443 kts | 199° |
| 2026-05-06 19:54 | 27.79562 | 137.06077 | 36058 ft | 443 kts | 199° |
| 2026-05-06 19:55 | 27.73647 | 137.04127 | 36061 ft | 442 kts | 199° |
| 2026-05-06 19:55 | 27.67734 | 137.02181 | 36063 ft | 443 kts | 199° |
| 2026-05-06 19:56 | 27.61808 | 137.00232 | 36062 ft | 443 kts | 199° |
| 2026-05-06 19:56 | 27.55903 | 136.98292 | 36062 ft | 443 kts | 199° |
| 2026-05-06 19:57 | 27.50000 | 136.96355 | 36053 ft | 443 kts | 199° |
| 2026-05-06 19:57 | 27.44106 | 136.94423 | 36066 ft | 442 kts | 199° |
| 2026-05-06 19:58 | 27.38190 | 136.92487 | 36059 ft | 442 kts | 199° |
| 2026-05-06 19:58 | 27.32290 | 136.90557 | 36065 ft | 442 kts | 199° |
| 2026-05-06 19:59 | 27.26362 | 136.88621 | 36055 ft | 442 kts | 198° |
| 2026-05-06 19:59 | 27.20454 | 136.86693 | 36063 ft | 442 kts | 198° |
| 2026-05-06 20:00 | 27.14586 | 136.84782 | 36069 ft | 442 kts | 198° |
| 2026-05-06 20:00 | 27.08682 | 136.82859 | 36067 ft | 442 kts | 198° |
| 2026-05-06 20:01 | 27.02771 | 136.80936 | 36035 ft | 442 kts | 198° |
| 2026-05-06 20:01 | 26.96871 | 136.79019 | 36061 ft | 442 kts | 198° |
| 2026-05-06 20:02 | 26.90945 | 136.77096 | 36072 ft | 443 kts | 198° |
| 2026-05-06 20:02 | 26.85019 | 136.75175 | 36062 ft | 443 kts | 198° |
| 2026-05-06 20:03 | 26.79103 | 136.73260 | 36064 ft | 443 kts | 198° |
| 2026-05-06 20:03 | 26.73215 | 136.71356 | 36052 ft | 443 kts | 198° |
| 2026-05-06 20:04 | 26.67272 | 136.69435 | 36060 ft | 442 kts | 198° |
| 2026-05-06 20:04 | 26.61395 | 136.67538 | 36059 ft | 442 kts | 198° |
| 2026-05-06 20:05 | 26.55472 | 136.65629 | 36057 ft | 442 kts | 198° |
| 2026-05-06 20:05 | 26.49562 | 136.63726 | 36052 ft | 442 kts | 198° |
| 2026-05-06 20:06 | 26.43656 | 136.61826 | 36058 ft | 442 kts | 198° |
| 2026-05-06 20:06 | 26.37751 | 136.59928 | 36057 ft | 442 kts | 198° |
| 2026-05-06 20:07 | 26.31804 | 136.58019 | 36057 ft | 442 kts | 198° |
| 2026-05-06 20:07 | 26.25884 | 136.56120 | 36045 ft | 443 kts | 199° |
| 2026-05-06 20:08 | 26.19998 | 136.54235 | 36055 ft | 443 kts | 199° |
| 2026-05-06 20:08 | 26.14076 | 136.52340 | 36052 ft | 443 kts | 199° |
| 2026-05-06 20:09 | 26.08141 | 136.50442 | 36054 ft | 443 kts | 198° |
| 2026-05-06 20:09 | 26.02200 | 136.48545 | 36048 ft | 444 kts | 198° |
| 2026-05-06 20:10 | 25.96282 | 136.46658 | 36051 ft | 444 kts | 198° |
| 2026-05-06 20:10 | 25.90332 | 136.44762 | 36051 ft | 444 kts | 198° |
| 2026-05-06 20:11 | 25.84417 | 136.42879 | 36051 ft | 444 kts | 198° |
| 2026-05-06 20:11 | 25.78457 | 136.40984 | 36050 ft | 444 kts | 198° |
| 2026-05-06 20:12 | 25.72540 | 136.39104 | 36047 ft | 444 kts | 198° |
| 2026-05-06 20:12 | 25.66611 | 136.37222 | 36052 ft | 444 kts | 198° |
| 2026-05-06 20:13 | 25.60664 | 136.35337 | 36050 ft | 444 kts | 199° |
| 2026-05-06 20:13 | 25.54738 | 136.33461 | 36046 ft | 444 kts | 199° |
| 2026-05-06 20:14 | 25.48813 | 136.31587 | 36034 ft | 444 kts | 199° |
| 2026-05-06 20:14 | 25.42839 | 136.29698 | 36049 ft | 444 kts | 199° |
| 2026-05-06 20:15 | 25.36901 | 136.27824 | 36047 ft | 445 kts | 199° |
| 2026-05-06 20:15 | 25.30952 | 136.25947 | 36047 ft | 445 kts | 199° |
| 2026-05-06 20:16 | 25.24993 | 136.24070 | 36033 ft | 446 kts | 199° |
| 2026-05-06 20:16 | 25.19023 | 136.22191 | 36045 ft | 446 kts | 199° |
| 2026-05-06 20:17 | 25.13063 | 136.20317 | 36046 ft | 446 kts | 199° |
| 2026-05-06 20:17 | 25.07112 | 136.18448 | 36047 ft | 447 kts | 199° |
| 2026-05-06 20:18 | 25.01111 | 136.16565 | 36051 ft | 447 kts | 199° |
| 2026-05-06 20:18 | 24.95130 | 136.14689 | 36043 ft | 447 kts | 199° |
| 2026-05-06 20:19 | 24.89173 | 136.12825 | 36048 ft | 448 kts | 199° |
| 2026-05-06 20:19 | 24.83179 | 136.10951 | 36048 ft | 448 kts | 199° |
| 2026-05-06 20:20 | 24.77172 | 136.09073 | 36044 ft | 448 kts | 199° |
| 2026-05-06 20:20 | 24.71156 | 136.07195 | 36035 ft | 448 kts | 199° |
| 2026-05-06 20:21 | 24.65154 | 136.05323 | 36044 ft | 449 kts | 199° |
| 2026-05-06 20:21 | 24.59177 | 136.03460 | 36044 ft | 449 kts | 199° |
| 2026-05-06 20:22 | 24.53139 | 136.01581 | 36041 ft | 449 kts | 199° |
| 2026-05-06 20:22 | 24.47131 | 135.99713 | 36029 ft | 450 kts | 199° |
| 2026-05-06 20:23 | 24.41116 | 135.97845 | 36039 ft | 450 kts | 199° |
| 2026-05-06 20:23 | 24.36112 | 135.96288 | 36039 ft | 450 kts | 200° |
| 2026-05-06 20:24 | 24.30054 | 135.94411 | 36039 ft | 451 kts | 200° |
| 2026-05-06 20:24 | 24.24021 | 135.92544 | 36038 ft | 451 kts | 200° |
| 2026-05-06 20:25 | 24.17984 | 135.90678 | 36035 ft | 452 kts | 200° |
| 2026-05-06 20:25 | 24.11935 | 135.88806 | 36036 ft | 453 kts | 200° |
| 2026-05-06 20:26 | 24.05863 | 135.86930 | 36037 ft | 453 kts | 200° |
| 2026-05-06 20:26 | 23.99799 | 135.85059 | 36033 ft | 454 kts | 200° |
| 2026-05-06 20:27 | 23.93730 | 135.83189 | 36029 ft | 454 kts | 200° |
| 2026-05-06 20:27 | 23.87615 | 135.81305 | 36034 ft | 455 kts | 200° |
| 2026-05-06 20:28 | 23.81524 | 135.79431 | 36032 ft | 455 kts | 200° |
| 2026-05-06 20:28 | 23.75453 | 135.77565 | 36033 ft | 455 kts | 200° |
| 2026-05-06 20:29 | 23.69354 | 135.75690 | 36021 ft | 456 kts | 200° |
| 2026-05-06 20:29 | 23.63222 | 135.73812 | 36032 ft | 456 kts | 200° |
| 2026-05-06 20:30 | 23.54067 | 135.71007 | 36030 ft | 457 kts | 200° |
| 2026-05-06 20:31 | 23.47938 | 135.69132 | 36030 ft | 458 kts | 200° |
| 2026-05-06 20:31 | 23.41803 | 135.67256 | 36030 ft | 458 kts | 200° |
| 2026-05-06 20:32 | 23.35653 | 135.65378 | 36024 ft | 458 kts | 200° |
| 2026-05-06 20:32 | 23.29518 | 135.63506 | 36028 ft | 458 kts | 200° |
| 2026-05-06 20:33 | 23.23390 | 135.61638 | 36030 ft | 458 kts | 200° |
| 2026-05-06 20:33 | 23.17285 | 135.59779 | 36017 ft | 458 kts | 200° |
| 2026-05-06 20:34 | 23.11154 | 135.57913 | 36027 ft | 458 kts | 200° |
| 2026-05-06 20:34 | 23.04987 | 135.56038 | 36024 ft | 459 kts | 200° |
| 2026-05-06 20:35 | 22.98843 | 135.54173 | 36025 ft | 459 kts | 200° |
| 2026-05-06 20:35 | 22.92691 | 135.52306 | 36013 ft | 460 kts | 200° |
| 2026-05-06 20:36 | 22.86518 | 135.50435 | 36023 ft | 461 kts | 200° |
| 2026-05-06 20:36 | 22.80338 | 135.48564 | 36031 ft | 461 kts | 200° |
| 2026-05-06 20:37 | 22.74152 | 135.46692 | 36021 ft | 462 kts | 200° |
| 2026-05-06 20:37 | 22.67975 | 135.44826 | 36005 ft | 462 kts | 200° |
| 2026-05-06 20:38 | 22.61792 | 135.42959 | 36018 ft | 463 kts | 200° |
| 2026-05-06 20:38 | 22.55559 | 135.41078 | 36016 ft | 463 kts | 200° |
| 2026-05-06 20:39 | 22.49391 | 135.39219 | 36022 ft | 464 kts | 200° |
| 2026-05-06 20:39 | 22.43157 | 135.37342 | 36022 ft | 464 kts | 200° |
| 2026-05-06 20:40 | 22.36958 | 135.35477 | 36015 ft | 464 kts | 200° |
| 2026-05-06 20:40 | 22.30750 | 135.33611 | 36023 ft | 464 kts | 200° |
| 2026-05-06 20:41 | 22.24510 | 135.31737 | 36021 ft | 465 kts | 200° |
| 2026-05-06 20:41 | 22.18284 | 135.29870 | 36019 ft | 465 kts | 200° |
| 2026-05-06 20:42 | 22.12057 | 135.28004 | 36017 ft | 465 kts | 200° |
| 2026-05-06 20:42 | 22.05819 | 135.26135 | 36016 ft | 466 kts | 200° |
| 2026-05-06 20:43 | 21.99580 | 135.24269 | 36019 ft | 466 kts | 200° |
| 2026-05-06 20:43 | 21.93302 | 135.22392 | 36011 ft | 467 kts | 200° |
| 2026-05-06 20:44 | 21.87064 | 135.20529 | 36005 ft | 467 kts | 200° |
| 2026-05-06 20:44 | 21.80815 | 135.18665 | 36014 ft | 467 kts | 200° |
| 2026-05-06 20:45 | 21.74520 | 135.16788 | 36007 ft | 467 kts | 200° |
| 2026-05-06 20:45 | 21.68254 | 135.14921 | 36283 ft | 472 kts | 200° |
| 2026-05-06 20:45 | 21.65079 | 135.13976 | 36538 ft | 473 kts | 200° |
| 2026-05-06 20:46 | 21.61903 | 135.13031 | 36782 ft | 474 kts | 200° |
| 2026-05-06 20:46 | 21.58749 | 135.12094 | 37103 ft | 473 kts | 200° |
| 2026-05-06 20:46 | 21.55572 | 135.11151 | 37453 ft | 471 kts | 200° |
| 2026-05-06 20:46 | 21.52433 | 135.10220 | 37807 ft | 469 kts | 200° |
| 2026-05-06 20:47 | 21.49259 | 135.09277 | 37939 ft | 471 kts | 200° |
| 2026-05-06 20:47 | 21.42964 | 135.07407 | 37999 ft | 471 kts | 200° |
| 2026-05-06 20:48 | 21.36651 | 135.05537 | 37987 ft | 468 kts | 200° |
| 2026-05-06 20:48 | 21.30403 | 135.03686 | 38001 ft | 466 kts | 200° |
| 2026-05-06 20:49 | 21.24119 | 135.01826 | 38006 ft | 466 kts | 200° |
| 2026-05-06 20:49 | 21.17903 | 134.99986 | 38005 ft | 467 kts | 200° |
| 2026-05-06 20:50 | 21.11597 | 134.98123 | 37992 ft | 468 kts | 201° |
| 2026-05-06 20:50 | 21.05330 | 134.96271 | 38002 ft | 468 kts | 201° |
| 2026-05-06 20:50 | 21.02323 | 134.95065 | 37990 ft | 461 kts | 212° |
| 2026-05-06 20:51 | 20.99559 | 134.93326 | 38010 ft | 456 kts | 219° |
| 2026-05-06 20:51 | 20.94911 | 134.88853 | 38012 ft | 448 kts | 232° |
| 2026-05-06 20:52 | 20.90768 | 134.83849 | 37996 ft | 450 kts | 232° |
| 2026-05-06 20:52 | 20.86620 | 134.78842 | 38001 ft | 452 kts | 232° |
| 2026-05-06 20:53 | 20.82417 | 134.73824 | 37995 ft | 453 kts | 231° |
| 2026-05-06 20:53 | 20.78181 | 134.68801 | 37996 ft | 453 kts | 231° |
| 2026-05-06 20:54 | 20.73964 | 134.63811 | 37990 ft | 453 kts | 231° |
| 2026-05-06 20:54 | 20.69740 | 134.58817 | 37998 ft | 453 kts | 231° |
| 2026-05-06 20:55 | 20.65519 | 134.53831 | 37994 ft | 453 kts | 231° |
| 2026-05-06 20:55 | 20.61289 | 134.48837 | 37992 ft | 452 kts | 231° |
| 2026-05-06 20:56 | 20.57080 | 134.43871 | 37987 ft | 451 kts | 231° |
| 2026-05-06 20:56 | 20.52885 | 134.38927 | 37996 ft | 451 kts | 231° |
| 2026-05-06 20:57 | 20.48679 | 134.33974 | 37988 ft | 451 kts | 231° |
| 2026-05-06 20:57 | 20.44459 | 134.29009 | 37989 ft | 451 kts | 231° |
| 2026-05-06 20:58 | 20.40249 | 134.24060 | 37979 ft | 451 kts | 231° |
| 2026-05-06 20:58 | 20.36045 | 134.19122 | 37993 ft | 451 kts | 231° |
| 2026-05-06 20:59 | 20.31814 | 134.14157 | 37985 ft | 451 kts | 231° |
| 2026-05-06 20:59 | 20.27597 | 134.09213 | 37987 ft | 452 kts | 231° |
| 2026-05-06 21:00 | 20.23367 | 134.04259 | 37973 ft | 452 kts | 231° |
| 2026-05-06 21:00 | 20.19143 | 133.99315 | 37986 ft | 452 kts | 231° |
| 2026-05-06 21:01 | 20.14897 | 133.94349 | 37983 ft | 452 kts | 231° |
| 2026-05-06 21:01 | 20.10666 | 133.89406 | 37980 ft | 453 kts | 231° |
| 2026-05-06 21:02 | 20.06432 | 133.84464 | 37967 ft | 453 kts | 231° |
| 2026-05-06 21:02 | 20.02173 | 133.79496 | 37986 ft | 453 kts | 231° |
| 2026-05-06 21:03 | 19.97931 | 133.74553 | 37980 ft | 453 kts | 231° |
| 2026-05-06 21:03 | 19.93687 | 133.69612 | 37977 ft | 454 kts | 231° |
| 2026-05-06 21:04 | 19.89433 | 133.64663 | 37979 ft | 453 kts | 231° |
| 2026-05-06 21:04 | 19.85177 | 133.59716 | 37981 ft | 454 kts | 231° |
| 2026-05-06 21:05 | 19.80913 | 133.54764 | 37980 ft | 454 kts | 231° |
| 2026-05-06 21:05 | 19.76647 | 133.49815 | 37974 ft | 455 kts | 231° |
| 2026-05-06 21:06 | 19.72386 | 133.44874 | 37970 ft | 455 kts | 231° |
| 2026-05-06 21:06 | 19.68121 | 133.39934 | 37970 ft | 455 kts | 231° |
| 2026-05-06 21:07 | 19.63819 | 133.34956 | 37974 ft | 455 kts | 230° |
| 2026-05-06 21:07 | 19.59540 | 133.30007 | 37973 ft | 456 kts | 230° |
| 2026-05-06 21:08 | 19.55281 | 133.25086 | 37970 ft | 456 kts | 230° |
| 2026-05-06 21:08 | 19.50993 | 133.20136 | 37965 ft | 456 kts | 230° |
| 2026-05-06 21:09 | 19.46703 | 133.15187 | 37970 ft | 456 kts | 230° |
| 2026-05-06 21:09 | 19.42389 | 133.10215 | 37968 ft | 456 kts | 230° |
| 2026-05-06 21:10 | 19.38092 | 133.05267 | 37970 ft | 456 kts | 230° |
| 2026-05-06 21:10 | 19.33816 | 133.00348 | 37961 ft | 456 kts | 230° |
| 2026-05-06 21:11 | 19.29515 | 132.95404 | 37965 ft | 456 kts | 230° |
| 2026-05-06 21:11 | 19.25223 | 132.90474 | 37978 ft | 456 kts | 230° |
| 2026-05-06 21:12 | 19.21638 | 132.86360 | 37958 ft | 456 kts | 230° |
| 2026-05-06 21:12 | 19.16634 | 132.80620 | 37955 ft | 456 kts | 230° |
| 2026-05-06 21:13 | 19.12330 | 132.75689 | 37959 ft | 456 kts | 230° |
| 2026-05-06 21:13 | 19.08755 | 132.71596 | 37973 ft | 456 kts | 230° |
| 2026-05-06 21:14 | 19.04433 | 132.66652 | 37977 ft | 456 kts | 230° |
| 2026-05-06 21:14 | 19.00136 | 132.61739 | 37978 ft | 456 kts | 230° |
| 2026-05-06 21:15 | 18.95842 | 132.56835 | 37947 ft | 456 kts | 230° |
| 2026-05-06 21:15 | 18.91536 | 132.51920 | 37957 ft | 456 kts | 230° |
| 2026-05-06 21:16 | 18.87240 | 132.47023 | 37967 ft | 455 kts | 230° |
| 2026-05-06 21:16 | 18.82910 | 132.42089 | 37958 ft | 456 kts | 230° |
| 2026-05-06 21:17 | 18.78613 | 132.37197 | 37944 ft | 456 kts | 230° |
| 2026-05-06 21:17 | 18.74322 | 132.32315 | 37962 ft | 455 kts | 230° |
| 2026-05-06 21:18 | 18.70003 | 132.27406 | 37962 ft | 455 kts | 230° |
| 2026-05-06 21:18 | 18.65693 | 132.22512 | 37950 ft | 455 kts | 230° |